Time;durP1;ratioP1;P1;durP2;ratioP2;P2;SDS_P1;SDS_P2;PMS_P1;PMS_P2;Temp;Humidity;BMP_temperature;BMP_pressure;BME280_temperature;BME280_humidity;BME280_pressure;Samples;Min_cycle;Max_cycle;Signal;HPM_P1;HPM_P2
2023/01/19 00:01:53;;;;;;;6.07;2.50;;;1.90;99.90;;;;;;5066495;28;20037;-78
2023/01/19 00:04:19;;;;;;;7.13;2.27;;;1.90;99.90;;;;;;5067728;28;20083;-76
2023/01/19 00:06:45;;;;;;;8.87;2.63;;;1.90;99.90;;;;;;5072949;28;20052;-76
2023/01/19 00:09:10;;;;;;;4.87;2.00;;;1.90;99.90;;;;;;5068047;28;20047;-76
2023/01/19 00:11:36;;;;;;;10.67;2.53;;;2.10;99.90;;;;;;5073434;28;20080;-75
2023/01/19 00:14:02;;;;;;;8.23;2.73;;;1.90;99.90;;;;;;5070714;28;20041;-76
2023/01/19 00:16:27;;;;;;;11.43;2.50;;;1.90;99.90;;;;;;5069433;28;20424;-78
2023/01/19 00:18:54;;;;;;;10.00;2.90;;;1.90;99.90;;;;;;5071615;28;20510;-76
2023/01/19 00:21:21;;;;;;;10.27;1.97;;;1.90;99.90;;;;;;5070764;28;20119;-76
2023/01/19 00:23:47;;;;;;;6.23;1.60;;;1.80;99.90;;;;;;5068433;28;20378;-76
2023/01/19 00:26:15;;;;;;;5.40;2.00;;;1.90;99.90;;;;;;5069764;28;20452;-76
2023/01/19 00:28:42;;;;;;;8.70;2.17;;;1.90;99.90;;;;;;5069505;28;20053;-78
2023/01/19 00:31:08;;;;;;;5.47;1.97;;;1.70;99.90;;;;;;5051974;28;20132;-76
2023/01/19 00:33:33;;;;;;;8.50;1.83;;;1.70;99.90;;;;;;5071437;28;20183;-76
2023/01/19 00:35:59;;;;;;;5.27;1.90;;;1.90;99.90;;;;;;5069332;28;20067;-76
2023/01/19 00:38:25;;;;;;;5.90;1.60;;;1.80;99.90;;;;;;5069778;28;20036;-76
2023/01/19 00:40:50;;;;;;;5.57;1.67;;;1.90;99.90;;;;;;5070090;28;20477;-81
2023/01/19 00:43:16;;;;;;;5.37;1.90;;;1.80;99.90;;;;;;5069309;28;20044;-77
2023/01/19 00:45:41;;;;;;;6.27;1.70;;;1.80;99.90;;;;;;5071077;28;20044;-78
2023/01/19 00:48:07;;;;;;;4.50;1.73;;;1.80;99.90;;;;;;5070596;28;20048;-76
2023/01/19 00:50:33;;;;;;;9.23;1.67;;;1.90;99.90;;;;;;5070703;28;20098;-77
2023/01/19 00:53:02;;;;;;;9.90;2.53;;;1.90;99.90;;;;;;5069964;28;20057;-76
2023/01/19 00:55:29;;;;;;;8.73;2.20;;;2.00;99.90;;;;;;5070494;28;20067;-76
2023/01/19 00:57:54;;;;;;;9.17;2.13;;;1.80;99.90;;;;;;5069400;28;20055;-75
2023/01/19 01:00:21;;;;;;;14.77;2.33;;;1.90;99.90;;;;;;5070445;28;20036;-76
2023/01/19 01:02:48;;;;;;;9.83;2.47;;;2.00;99.90;;;;;;5067621;28;20039;-77
2023/01/19 01:05:14;;;;;;;7.73;1.77;;;2.10;99.90;;;;;;5070623;28;20052;-76
2023/01/19 01:07:40;;;;;;;9.90;2.30;;;2.00;99.90;;;;;;5070042;28;20059;-79
2023/01/19 01:10:08;;;;;;;10.53;2.40;;;2.10;99.90;;;;;;5067935;28;20087;-78
2023/01/19 01:12:33;;;;;;;12.07;2.27;;;2.10;99.90;;;;;;5069193;28;20334;-76
2023/01/19 01:14:59;;;;;;;10.13;2.63;;;2.10;99.90;;;;;;5070612;28;20127;-76
2023/01/19 01:17:25;;;;;;;7.87;1.90;;;2.20;99.90;;;;;;5070902;28;20048;-77
2023/01/19 01:19:51;;;;;;;6.87;2.20;;;2.20;99.90;;;;;;5070641;28;20386;-76
2023/01/19 01:22:17;;;;;;;8.77;2.73;;;2.10;99.90;;;;;;5066772;28;20082;-77
2023/01/19 01:24:43;;;;;;;12.13;2.57;;;2.40;99.90;;;;;;5070150;28;20040;-76
2023/01/19 01:27:10;;;;;;;16.47;2.77;;;2.00;99.90;;;;;;5069160;28;20043;-75
2023/01/19 01:29:36;;;;;;;10.80;2.00;;;2.10;99.90;;;;;;5068653;28;20056;-77
2023/01/19 01:32:03;;;;;;;9.20;2.77;;;2.20;99.90;;;;;;5069202;28;20040;-76
2023/01/19 01:34:28;;;;;;;9.77;2.30;;;2.00;99.90;;;;;;5069630;28;20124;-76
2023/01/19 01:36:54;;;;;;;7.43;2.70;;;2.10;99.90;;;;;;5069584;28;20123;-76
2023/01/19 01:39:21;;;;;;;11.03;1.97;;;2.20;99.90;;;;;;5069396;28;20367;-76
2023/01/19 01:41:47;;;;;;;8.50;2.03;;;2.10;99.90;;;;;;5069244;28;20058;-77
2023/01/19 01:44:48;;;;;;;10.47;2.03;;;2.20;99.90;;;;;;5069963;28;20110;-77
2023/01/19 01:47:43;;;;;;;15.38;2.03;;;2.30;99.90;;;;;;5069287;28;20051;-77
2023/01/19 01:51:22;;;;;;;11.10;2.30;;;2.20;99.90;;;;;;5062660;28;20450;-76
2023/01/19 01:53:29;;;;;;;14.53;2.90;;;2.30;99.90;;;;;;5043257;28;20394;-76
2023/01/19 01:55:55;;;;;;;10.97;2.70;;;2.40;99.90;;;;;;5069177;28;20126;-79
2023/01/19 01:58:21;;;;;;;10.00;2.77;;;2.30;99.90;;;;;;5070018;28;20083;-76
2023/01/19 02:03:48;;;;;;;11.95;3.20;;;2.60;99.90;;;;;;5017655;28;20042;-76
2023/01/19 02:06:14;;;;;;;10.77;3.07;;;2.40;99.90;;;;;;5058866;28;20095;-76
2023/01/19 02:14:17;;;;;;;15.53;3.17;;;2.60;99.90;;;;;;5069140;28;20349;-77
2023/01/19 02:16:43;;;;;;;13.10;3.30;;;2.60;99.90;;;;;;5069078;28;20115;-76
2023/01/19 02:19:15;;;;;;;8.20;2.97;;;2.70;99.90;;;;;;5069104;28;20131;-76
2023/01/19 02:21:53;;;;;;;14.63;3.20;;;2.70;99.90;;;;;;5067792;28;20387;-76
2023/01/19 02:24:19;;;;;;;10.87;3.30;;;2.70;99.90;;;;;;5068823;28;20052;-76
2023/01/19 02:26:47;;;;;;;11.93;2.73;;;2.70;99.90;;;;;;5068642;28;20123;-76
2023/01/19 02:29:18;;;;;;;14.03;2.73;;;2.70;99.90;;;;;;5068676;28;20487;-76
2023/01/19 02:31:45;;;;;;;8.60;3.20;;;2.70;99.90;;;;;;5066594;28;20054;-76
2023/01/19 02:34:14;;;;;;;13.40;3.40;;;2.80;99.90;;;;;;5068934;28;20051;-76
2023/01/19 02:36:53;;;;;;;13.20;3.60;;;2.70;99.90;;;;;;5067283;28;20460;-76
2023/01/19 02:39:40;;;;;;;9.03;2.53;;;2.80;99.90;;;;;;5067329;28;20044;-79
2023/01/19 02:42:10;;;;;;;9.20;2.17;;;2.90;99.90;;;;;;5065240;28;20045;-76
2023/01/19 02:44:38;;;;;;;10.63;2.75;;;2.80;99.90;;;;;;5068798;28;20382;-76
2023/01/19 02:47:04;;;;;;;7.40;3.00;;;2.80;99.90;;;;;;5067696;28;20438;-76
2023/01/19 02:49:30;;;;;;;7.90;2.80;;;2.80;99.90;;;;;;5068843;28;20048;-76
2023/01/19 02:51:57;;;;;;;7.63;2.10;;;2.90;99.90;;;;;;5067974;28;20067;-76
2023/01/19 02:54:33;;;;;;;10.63;2.40;;;2.90;99.90;;;;;;5066099;28;20044;-80
2023/01/19 02:57:28;;;;;;;6.60;2.17;;;2.80;99.90;;;;;;5068396;28;20052;-76
2023/01/19 02:59:59;;;;;;;9.47;2.10;;;2.80;99.90;;;;;;5065616;28;20127;-77
2023/01/19 03:03:07;;;;;;;13.20;2.23;;;2.80;99.90;;;;;;5067718;28;20040;-76
2023/01/19 03:06:00;;;;;;;6.73;2.57;;;2.80;99.90;;;;;;5068302;28;20044;-76
2023/01/19 03:08:46;;;;;;;5.47;2.77;;;2.80;99.90;;;;;;5058876;28;20083;-81
2023/01/19 03:11:14;;;;;;;9.33;3.20;;;2.80;99.90;;;;;;5066264;28;20394;-77
2023/01/19 03:13:53;;;;;;;11.67;3.27;;;2.80;99.90;;;;;;5067550;28;20543;-77
2023/01/19 03:16:54;;;;;;;13.77;3.93;;;2.80;99.90;;;;;;5066903;28;20048;-77
2023/01/19 03:19:38;;;;;;;11.35;2.90;;;2.70;99.90;;;;;;5068309;28;20453;-77
2023/01/19 03:22:12;;;;;;;10.40;4.37;;;2.80;99.90;;;;;;5066662;28;20052;-77
2023/01/19 03:24:42;;;;;;;7.70;4.27;;;2.70;99.90;;;;;;5068364;28;20041;-78
2023/01/19 03:27:19;;;;;;;9.77;4.47;;;2.70;99.90;;;;;;5067328;28;20048;-77
2023/01/19 03:30:01;;;;;;;6.83;4.37;;;2.70;99.90;;;;;;5068071;28;20083;-77
2023/01/19 03:32:34;;;;;;;13.17;5.27;;;2.70;99.90;;;;;;5066712;28;20097;-76
2023/01/19 03:35:04;;;;;;;10.80;5.60;;;2.70;99.90;;;;;;5068150;28;20037;-77
2023/01/19 03:37:32;;;;;;;10.03;5.80;;;2.60;99.90;;;;;;5067017;28;20052;-77
2023/01/19 03:39:59;;;;;;;12.17;5.77;;;2.60;99.90;;;;;;5067166;28;20479;-81
2023/01/19 03:42:27;;;;;;;10.90;6.00;;;2.70;99.90;;;;;;5067507;28;20036;-76
2023/01/19 03:44:55;;;;;;;11.50;6.37;;;2.60;99.90;;;;;;5050816;28;20048;-76
2023/01/19 03:47:22;;;;;;;12.50;6.07;;;2.50;99.90;;;;;;5066254;28;20097;-77
2023/01/19 03:49:50;;;;;;;11.83;6.17;;;2.50;99.90;;;;;;5071371;28;20447;-76
2023/01/19 03:52:16;;;;;;;12.47;6.43;;;2.50;99.90;;;;;;5070020;28;20058;-76
2023/01/19 03:54:42;;;;;;;10.30;6.77;;;2.50;99.90;;;;;;5072184;28;20044;-76
2023/01/19 03:57:08;;;;;;;14.77;7.23;;;2.50;99.90;;;;;;5071659;28;20037;-76
2023/01/19 03:59:34;;;;;;;13.07;6.13;;;2.50;99.90;;;;;;5071699;28;20470;-76
2023/01/19 04:02:00;;;;;;;11.47;6.23;;;2.50;99.90;;;;;;5070599;28;20040;-76
2023/01/19 04:04:26;;;;;;;12.53;6.40;;;2.50;99.90;;;;;;5070860;28;20045;-78
2023/01/19 04:06:51;;;;;;;12.47;6.37;;;2.50;99.90;;;;;;5066602;28;20051;-76
2023/01/19 04:09:17;;;;;;;9.67;5.50;;;2.60;99.90;;;;;;5070970;28;20053;-76
2023/01/19 04:11:43;;;;;;;19.27;6.47;;;2.50;99.90;;;;;;5070010;28;20389;-76
2023/01/19 04:14:08;;;;;;;10.80;6.63;;;2.60;99.90;;;;;;5070859;28;20135;-77
2023/01/19 04:16:34;;;;;;;9.37;5.53;;;2.40;99.90;;;;;;5070620;28;20234;-76
2023/01/19 04:19:00;;;;;;;12.27;5.43;;;2.40;99.90;;;;;;5070032;28;20044;-76
2023/01/19 04:21:25;;;;;;;12.03;5.87;;;2.50;99.90;;;;;;5071050;28;20131;-76
2023/01/19 04:23:52;;;;;;;15.40;6.37;;;2.50;99.90;;;;;;5071418;28;20541;-78
2023/01/19 04:26:17;;;;;;;15.60;6.10;;;2.40;99.90;;;;;;5070079;28;20481;-76
2023/01/19 04:28:43;;;;;;;13.47;6.10;;;2.50;99.90;;;;;;5070325;28;20051;-77
2023/01/19 04:31:09;;;;;;;11.43;5.53;;;2.30;99.90;;;;;;5069991;28;20052;-76
2023/01/19 04:33:35;;;;;;;11.13;5.67;;;2.30;99.90;;;;;;5070079;28;20076;-76
2023/01/19 04:36:02;;;;;;;12.17;5.13;;;2.30;99.90;;;;;;5072560;28;20076;-78
2023/01/19 04:38:28;;;;;;;10.20;4.90;;;2.30;99.90;;;;;;5069824;28;20037;-77
2023/01/19 04:40:54;;;;;;;16.37;4.63;;;2.20;99.90;;;;;;5068279;28;20063;-77
2023/01/19 04:43:21;;;;;;;11.30;5.03;;;2.30;99.90;;;;;;5071083;28;20033;-76
2023/01/19 04:45:48;;;;;;;12.10;4.73;;;2.20;99.90;;;;;;5069846;28;20143;-77
2023/01/19 04:48:14;;;;;;;15.93;5.80;;;2.30;99.90;;;;;;5071105;28;20044;-77
2023/01/19 04:50:40;;;;;;;13.60;4.77;;;2.20;99.90;;;;;;5069982;28;20040;-80
2023/01/19 04:53:06;;;;;;;12.17;4.70;;;2.30;99.90;;;;;;5069392;28;20072;-77
2023/01/19 04:55:32;;;;;;;11.47;4.83;;;2.40;99.90;;;;;;5069516;28;20043;-76
2023/01/19 04:57:58;;;;;;;8.40;4.40;;;2.50;99.90;;;;;;5071220;28;20044;-77
2023/01/19 05:00:25;;;;;;;12.10;4.30;;;2.30;99.90;;;;;;5068524;28;20087;-76
2023/01/19 05:02:51;;;;;;;10.73;4.00;;;2.30;99.90;;;;;;5068437;28;20032;-77
2023/01/19 05:05:17;;;;;;;12.23;3.53;;;2.30;99.90;;;;;;5070677;28;20048;-76
2023/01/19 05:07:43;;;;;;;18.00;3.20;;;2.40;99.90;;;;;;5067820;28;20446;-80
2023/01/19 05:10:09;;;;;;;9.47;3.27;;;2.30;99.90;;;;;;5069786;28;20089;-76
2023/01/19 05:12:35;;;;;;;8.37;2.93;;;2.30;99.90;;;;;;5069023;28;20044;-76
2023/01/19 05:15:01;;;;;;;7.90;2.43;;;2.20;99.90;;;;;;5069005;28;20044;-76
2023/01/19 05:17:27;;;;;;;11.13;2.83;;;2.20;99.90;;;;;;5069711;28;20375;-76
2023/01/19 05:19:52;;;;;;;9.73;3.40;;;2.10;99.90;;;;;;5068433;28;20044;-76
2023/01/19 05:22:18;;;;;;;8.60;2.83;;;2.10;99.90;;;;;;5069231;28;20374;-77
2023/01/19 05:24:44;;;;;;;16.97;8.67;;;2.10;99.90;;;;;;5069029;28;20040;-76
2023/01/19 05:27:10;;;;;;;21.90;14.63;;;2.10;99.90;;;;;;5069785;28;20048;-76
2023/01/19 05:29:36;;;;;;;27.10;17.80;;;2.10;99.90;;;;;;5069995;28;20040;-76
2023/01/19 05:32:01;;;;;;;26.97;17.97;;;2.00;99.90;;;;;;5068855;28;20028;-76
2023/01/19 05:34:27;;;;;;;21.73;14.40;;;2.00;99.90;;;;;;5069082;28;20124;-76
2023/01/19 05:36:53;;;;;;;26.40;14.60;;;2.00;99.90;;;;;;5069904;28;20348;-78
2023/01/19 05:39:19;;;;;;;15.20;10.90;;;2.00;99.90;;;;;;5068480;28;20147;-76
2023/01/19 05:41:44;;;;;;;11.67;3.70;;;2.00;99.90;;;;;;5068381;28;20047;-78
2023/01/19 05:44:11;;;;;;;8.93;1.67;;;2.10;99.90;;;;;;5070211;28;20041;-77
2023/01/19 05:46:37;;;;;;;8.17;1.43;;;2.20;99.90;;;;;;5068609;28;20314;-77
2023/01/19 05:49:03;;;;;;;6.60;1.50;;;2.20;99.90;;;;;;5066601;28;20384;-77
2023/01/19 05:51:36;;;;;;;10.73;1.50;;;2.20;99.90;;;;;;5068851;28;20044;-76
2023/01/19 05:54:04;;;;;;;6.93;1.53;;;2.20;99.90;;;;;;5069837;28;20049;-75
2023/01/19 05:56:29;;;;;;;8.67;1.43;;;2.10;99.90;;;;;;5067103;28;20352;-79
2023/01/19 05:58:55;;;;;;;8.43;1.57;;;2.20;99.90;;;;;;5068970;28;20426;-76
2023/01/19 06:01:21;;;;;;;14.33;1.80;;;2.10;99.90;;;;;;5067612;28;20081;-75
2023/01/19 06:03:47;;;;;;;8.87;1.30;;;2.20;99.90;;;;;;5069502;28;20048;-76
2023/01/19 06:06:14;;;;;;;5.03;1.20;;;2.20;99.90;;;;;;5068543;28;20547;-77
2023/01/19 06:08:41;;;;;;;5.73;1.30;;;2.10;99.90;;;;;;5068429;28;20084;-78
2023/01/19 06:11:06;;;;;;;10.13;1.40;;;2.10;99.90;;;;;;5066829;28;20056;-76
2023/01/19 06:13:33;;;;;;;7.27;1.53;;;2.20;99.90;;;;;;5069529;28;20036;-77
2023/01/19 06:16:00;;;;;;;4.73;1.70;;;2.10;99.90;;;;;;5069313;28;20037;-76
2023/01/19 06:18:26;;;;;;;10.50;1.83;;;2.10;99.90;;;;;;5064959;28;20782;-76
2023/01/19 06:20:57;;;;;;;9.33;1.87;;;2.30;99.90;;;;;;5064951;28;20474;-76
2023/01/19 06:23:28;;;;;;;6.65;1.50;;;2.40;99.90;;;;;;5064581;28;20032;-76
2023/01/19 06:25:54;;;;;;;10.10;1.70;;;2.40;99.90;;;;;;5067272;28;20093;-76
2023/01/19 06:28:21;;;;;;;10.60;2.23;;;2.50;99.90;;;;;;5066670;28;20044;-76
2023/01/19 06:30:51;;;;;;;13.67;2.40;;;2.50;99.90;;;;;;5067562;28;20059;-77
2023/01/19 06:33:18;;;;;;;15.77;2.43;;;2.70;99.90;;;;;;5067233;28;20051;-77
2023/01/19 06:35:45;;;;;;;13.47;2.13;;;2.60;99.90;;;;;;5068306;28;20036;-77
2023/01/19 06:38:12;;;;;;;13.23;3.03;;;2.50;99.90;;;;;;5068641;28;20071;-76
2023/01/19 06:40:41;;;;;;;18.90;3.67;;;2.60;99.90;;;;;;5068647;28;20040;-76
2023/01/19 06:43:07;;;;;;;16.03;2.73;;;2.60;99.90;;;;;;5066871;28;20041;-76
2023/01/19 06:45:33;;;;;;;16.13;2.87;;;2.60;99.90;;;;;;5068780;28;20045;-76
2023/01/19 06:47:59;;;;;;;15.40;2.70;;;2.60;99.90;;;;;;5070906;28;20051;-75
2023/01/19 06:50:26;;;;;;;14.70;2.80;;;2.80;99.90;;;;;;5050239;28;20040;-76
2023/01/19 06:52:52;;;;;;;18.40;3.27;;;2.60;99.90;;;;;;5067225;28;20037;-75
2023/01/19 06:55:18;;;;;;;14.60;3.40;;;2.70;99.90;;;;;;5045374;28;20600;-77
2023/01/19 06:57:43;;;;;;;15.30;4.00;;;2.70;99.90;;;;;;5060360;28;20053;-78
2023/01/19 07:00:11;;;;;;;10.13;2.13;;;2.80;99.90;;;;;;5066198;28;20082;-76
2023/01/19 07:02:41;;;;;;;8.23;2.03;;;2.80;99.90;;;;;;5066961;28;20133;-76
2023/01/19 07:05:08;;;;;;;10.63;2.80;;;2.90;99.90;;;;;;5065040;28;20471;-77
2023/01/19 07:07:34;;;;;;;13.13;4.17;;;2.90;99.90;;;;;;5063500;28;20375;-76
2023/01/19 07:09:59;;;;;;;9.07;2.33;;;3.10;99.90;;;;;;5062590;28;20084;-80
2023/01/19 07:12:25;;;;;;;17.17;14.47;;;3.10;99.90;;;;;;5063546;28;20170;-77
2023/01/19 07:14:51;;;;;;;10.10;2.80;;;3.10;99.90;;;;;;5066072;28;20048;-76
2023/01/19 07:17:17;;;;;;;17.50;3.67;;;3.10;99.90;;;;;;5067831;28;20049;-77
2023/01/19 07:19:44;;;;;;;16.23;3.23;;;3.10;99.90;;;;;;5065324;28;20475;-75
2023/01/19 07:22:09;;;;;;;19.80;4.07;;;3.10;99.90;;;;;;5070595;28;20053;-76
2023/01/19 07:24:36;;;;;;;19.53;4.27;;;3.10;99.90;;;;;;5072757;28;20055;-76
2023/01/19 07:27:03;;;;;;;25.00;4.03;;;3.00;99.90;;;;;;5069797;28;20049;-80
2023/01/19 07:29:29;;;;;;;19.00;4.33;;;3.00;99.90;;;;;;5070096;28;20048;-76
2023/01/19 07:31:55;;;;;;;22.10;4.03;;;3.00;99.90;;;;;;5068309;28;20047;-76
2023/01/19 07:34:21;;;;;;;20.83;4.27;;;3.00;99.90;;;;;;5068054;28;20046;-76
2023/01/19 07:36:47;;;;;;;18.80;3.80;;;3.10;99.90;;;;;;5072065;28;20067;-77
2023/01/19 07:39:13;;;;;;;23.13;3.50;;;3.10;99.90;;;;;;5070376;28;20101;-75
2023/01/19 07:41:38;;;;;;;45.30;36.07;;;3.20;99.90;;;;;;5067820;28;20577;-76
2023/01/19 07:44:04;;;;;;;26.00;17.40;;;3.40;99.90;;;;;;5064230;28;20124;-76
2023/01/19 07:46:30;;;;;;;21.47;10.90;;;3.30;99.90;;;;;;5063791;28;20032;-75
2023/01/19 07:48:55;;;;;;;23.90;4.37;;;3.30;99.90;;;;;;5070254;28;20090;-76
2023/01/19 07:51:21;;;;;;;18.03;3.13;;;3.40;99.90;;;;;;5068916;28;20094;-77
2023/01/19 07:53:49;;;;;;;15.47;5.60;;;3.30;99.90;;;;;;5068072;28;20053;-76
2023/01/19 07:56:15;;;;;;;10.77;2.87;;;3.30;99.90;;;;;;5068110;28;20352;-77
2023/01/19 07:58:41;;;;;;;41.40;37.70;;;3.30;99.90;;;;;;5069658;28;20044;-76
2023/01/19 08:01:08;;;;;;;16.50;8.03;;;3.30;99.90;;;;;;5067065;28;20081;-77
2023/01/19 08:03:34;;;;;;;11.40;2.97;;;3.30;99.90;;;;;;5071303;28;20043;-76
2023/01/19 08:05:59;;;;;;;12.70;2.67;;;3.30;99.90;;;;;;5053388;28;20048;-77
2023/01/19 08:08:25;;;;;;;17.63;3.40;;;3.40;99.90;;;;;;5051493;28;20497;-76
2023/01/19 08:10:51;;;;;;;19.60;3.60;;;3.40;99.90;;;;;;5050419;28;20044;-78
2023/01/19 08:13:17;;;;;;;14.53;3.70;;;3.40;99.90;;;;;;5049838;28;20072;-79
2023/01/19 08:15:43;;;;;;;23.70;4.20;;;3.40;99.90;;;;;;5049410;28;20055;-79
2023/01/19 08:18:10;;;;;;;18.07;3.50;;;3.70;99.90;;;;;;5050360;28;20259;-76
2023/01/19 08:20:36;;;;;;;20.97;3.27;;;3.50;99.90;;;;;;5047880;28;20394;-78
2023/01/19 08:23:03;;;;;;;16.80;3.97;;;3.60;99.90;;;;;;5048770;28;20696;-76
2023/01/19 08:25:36;;;;;;;23.03;4.27;;;3.50;99.90;;;;;;5050678;28;20044;-76
2023/01/19 08:28:04;;;;;;;16.90;3.77;;;3.50;99.90;;;;;;5052122;28;20036;-81
2023/01/19 08:30:30;;;;;;;13.60;3.20;;;3.50;99.90;;;;;;5048988;28;20079;-78
2023/01/19 08:33:02;;;;;;;18.80;3.33;;;3.50;99.90;;;;;;5047706;28;20465;-77
2023/01/19 08:35:30;;;;;;;21.93;3.73;;;3.50;99.90;;;;;;5048084;28;20117;-80
2023/01/19 08:37:59;;;;;;;13.80;3.67;;;3.40;99.90;;;;;;5048372;28;20126;-78
2023/01/19 08:40:29;;;;;;;22.17;4.20;;;3.40;99.90;;;;;;5066469;28;20349;-76
2023/01/19 08:43:06;;;;;;;19.87;4.67;;;3.40;99.90;;;;;;5050755;28;21456;-79
2023/01/19 08:45:34;;;;;;;16.60;4.47;;;3.40;99.90;;;;;;5051204;28;20414;-75
2023/01/19 08:48:00;;;;;;;21.67;4.90;;;3.50;99.90;;;;;;5048966;28;20053;-80
2023/01/19 08:50:29;;;;;;;20.97;5.17;;;3.40;99.90;;;;;;5050692;28;20465;-81
2023/01/19 08:52:59;;;;;;;23.97;5.03;;;3.40;99.90;;;;;;5050047;28;20055;-77
2023/01/19 08:55:26;;;;;;;19.00;4.77;;;3.40;99.90;;;;;;5051074;28;20040;-77
2023/01/19 08:57:53;;;;;;;21.13;5.27;;;3.40;99.90;;;;;;5050933;28;20048;-78
2023/01/19 09:00:20;;;;;;;18.20;5.67;;;3.50;99.90;;;;;;5050552;28;20109;-81
2023/01/19 09:02:46;;;;;;;19.10;4.77;;;3.30;99.90;;;;;;5050138;28;20044;-77
2023/01/19 09:05:11;;;;;;;19.30;5.87;;;3.20;99.90;;;;;;5050944;28;20111;-76
2023/01/19 09:07:37;;;;;;;20.80;5.17;;;3.20;99.90;;;;;;5049522;28;20068;-76
2023/01/19 09:10:06;;;;;;;20.03;5.50;;;3.10;99.90;;;;;;5048536;28;20104;-80
2023/01/19 09:12:32;;;;;;;18.43;5.50;;;3.10;99.90;;;;;;5049175;28;20060;-78
2023/01/19 09:14:58;;;;;;;16.90;4.13;;;3.10;99.90;;;;;;5050823;28;20051;-77
2023/01/19 09:17:23;;;;;;;19.07;3.90;;;3.10;99.90;;;;;;5049712;28;20079;-80
2023/01/19 09:19:49;;;;;;;16.97;3.90;;;3.10;99.90;;;;;;5050215;28;20045;-76
2023/01/19 09:22:15;;;;;;;11.10;3.47;;;3.00;99.90;;;;;;5048059;28;20474;-77
2023/01/19 09:24:40;;;;;;;17.53;4.43;;;3.10;99.90;;;;;;5049817;28;20033;-78
2023/01/19 09:27:06;;;;;;;12.30;3.53;;;3.10;99.90;;;;;;5049522;28;20402;-80
2023/01/19 09:29:32;;;;;;;14.80;3.50;;;3.10;99.90;;;;;;5041719;28;20101;-80
2023/01/19 09:31:58;;;;;;;13.57;2.93;;;3.20;99.90;;;;;;5043280;28;20162;-80
2023/01/19 09:34:26;;;;;;;9.60;3.30;;;3.30;99.90;;;;;;5046201;28;20098;-76
2023/01/19 09:36:52;;;;;;;11.30;4.00;;;3.20;99.90;;;;;;5044607;28;20076;-82
2023/01/19 09:39:18;;;;;;;8.80;2.97;;;3.30;99.90;;;;;;5050346;28;20190;-76
2023/01/19 09:41:50;;;;;;;11.67;3.83;;;3.40;99.90;;;;;;5048311;28;20133;-76
2023/01/19 09:44:24;;;;;;;12.93;3.87;;;3.40;99.90;;;;;;5030078;28;20073;-76
2023/01/19 09:46:50;;;;;;;17.37;12.87;;;3.40;99.90;;;;;;5048361;28;20593;-79
2023/01/19 09:49:29;;;;;;;14.17;4.97;;;3.50;99.90;;;;;;5048511;28;20139;-80
2023/01/19 09:51:55;;;;;;;13.33;4.00;;;3.60;99.90;;;;;;5048388;28;20518;-77
2023/01/19 09:54:54;;;;;;;13.37;3.97;;;3.70;99.90;;;;;;5030294;28;20082;-76
2023/01/19 09:57:22;;;;;;;13.97;3.67;;;3.80;99.90;;;;;;5049312;28;20413;-76
2023/01/19 09:59:50;;;;;;;15.53;4.40;;;4.00;99.90;;;;;;5049378;28;20123;-78
2023/01/19 10:02:41;;;;;;;19.67;5.30;;;4.30;99.90;;;;;;5046668;28;20045;-79
2023/01/19 10:05:22;;;;;;;15.18;3.97;;;4.30;99.90;;;;;;5048522;28;20584;-79
2023/01/19 10:07:54;;;;;;;12.13;4.95;;;4.30;99.90;;;;;;5047992;28;20087;-78
2023/01/19 10:10:34;;;;;;;20.23;4.37;;;4.20;99.90;;;;;;5046838;28;20059;-77
2023/01/19 10:13:13;;;;;;;23.60;16.77;;;4.20;99.90;;;;;;5046698;28;20198;-81
2023/01/19 10:16:13;;;;;;;17.23;5.07;;;4.30;99.90;;;;;;5048356;28;20131;-80
2023/01/19 10:18:46;;;;;;;16.53;4.73;;;4.70;99.90;;;;;;5049379;28;20059;-78
2023/01/19 10:21:30;;;;;;;18.07;4.20;;;4.90;99.90;;;;;;5046322;28;20058;-79
2023/01/19 10:24:14;;;;;;;13.57;4.03;;;5.10;99.90;;;;;;5047422;28;21385;-79
2023/01/19 10:26:42;;;;;;;16.07;4.07;;;5.20;99.90;;;;;;5048833;28;20511;-77
2023/01/19 10:29:37;;;;;;;24.17;7.43;;;5.20;99.90;;;;;;5046947;28;20045;-78
2023/01/19 10:32:11;;;;;;;16.03;4.00;;;5.40;99.90;;;;;;5047405;28;20569;-77
2023/01/19 10:34:37;;;;;;;13.90;4.47;;;5.40;99.90;;;;;;5047757;28;20068;-76
2023/01/19 10:37:21;;;;;;;14.20;3.70;;;5.40;99.90;;;;;;5046196;28;20194;-79
2023/01/19 10:39:53;;;;;;;13.33;5.13;;;5.60;99.90;;;;;;5046626;28;20048;-80
2023/01/19 10:42:19;;;;;;;11.63;3.37;;;5.50;99.90;;;;;;5047216;28;20473;-77
2023/01/19 10:44:45;;;;;;;15.20;5.00;;;5.60;99.90;;;;;;5047966;28;20041;-77
2023/01/19 10:47:17;;;;;;;19.27;4.77;;;5.90;99.90;;;;;;5045456;28;20055;-77
2023/01/19 10:49:43;;;;;;;13.50;4.20;;;6.10;99.90;;;;;;5047464;28;20705;-82
2023/01/19 10:52:27;;;;;;;16.83;4.27;;;6.30;99.90;;;;;;5047544;28;20062;-76
2023/01/19 10:54:53;;;;;;;15.17;5.33;;;6.50;99.90;;;;;;5047262;28;20075;-78
2023/01/19 10:57:30;;;;;;;16.77;11.83;;;6.50;99.90;;;;;;5048434;28;20116;-76
2023/01/19 10:59:56;;;;;;;15.63;4.20;;;6.00;99.90;;;;;;5046429;28;20048;-80
2023/01/19 11:02:30;;;;;;;11.77;3.60;;;6.00;99.90;;;;;;5046749;28;20367;-76
2023/01/19 11:04:58;;;;;;;12.50;3.33;;;6.50;99.90;;;;;;5047549;28;20982;-77
2023/01/19 11:07:30;;;;;;;19.63;13.30;;;6.10;99.90;;;;;;5045543;28;20113;-76
2023/01/19 11:10:14;;;;;;;14.60;4.13;;;5.90;99.90;;;;;;5046261;28;20056;-78
2023/01/19 11:12:42;;;;;;;19.70;3.10;;;5.50;99.90;;;;;;5046805;28;20048;-78
2023/01/19 11:15:19;;;;;;;17.80;3.63;;;5.80;99.90;;;;;;5048547;28;20053;-78
2023/01/19 11:17:47;;;;;;;15.27;4.83;;;6.70;99.90;;;;;;5047883;28;20063;-77
2023/01/19 11:20:32;;;;;;;14.30;3.67;;;7.10;99.90;;;;;;5046920;28;20478;-77
2023/01/19 11:23:13;;;;;;;47.00;42.87;;;7.60;99.90;;;;;;5047938;28;20084;-78
2023/01/19 11:25:40;;;;;;;11.35;3.88;;;7.50;99.90;;;;;;5049133;28;20375;-79
2023/01/19 11:28:32;;;;;;;10.87;4.27;;;7.40;99.90;;;;;;5047394;28;20040;-76
2023/01/19 11:31:09;;;;;;;14.80;4.00;;;7.60;99.90;;;;;;5047827;28;20044;-77
2023/01/19 11:33:41;;;;;;;14.90;5.33;;;8.50;99.90;;;;;;5047499;28;20123;-79
2023/01/19 11:36:18;;;;;;;16.70;6.93;;;9.40;99.90;;;;;;5046783;28;20056;-78
2023/01/19 11:38:45;;;;;;;15.13;5.67;;;10.20;99.90;;;;;;5047353;28;20059;-78
2023/01/19 11:41:28;;;;;;;21.00;18.73;;;9.20;99.90;;;;;;5044766;28;20095;-78
2023/01/19 11:43:57;;;;;;;14.00;12.60;;;8.50;99.90;;;;;;5029638;28;20189;-78
2023/01/19 11:46:25;;;;;;;13.63;8.53;;;8.70;99.90;;;;;;5047751;28;20553;-76
2023/01/19 11:49:00;;;;;;;12.20;8.43;;;8.80;99.90;;;;;;5046812;28;20052;-78
2023/01/19 11:51:43;;;;;;;12.83;7.63;;;9.50;99.90;;;;;;5047502;28;20057;-79
2023/01/19 11:54:20;;;;;;;13.80;9.63;;;9.80;99.90;;;;;;5045751;28;20879;-80
2023/01/19 11:56:47;;;;;;;21.80;19.30;;;9.50;99.90;;;;;;5048616;28;20033;-76
2023/01/19 11:59:13;;;;;;;16.93;13.53;;;8.80;99.90;;;;;;5048283;28;20056;-81
2023/01/19 12:01:49;;;;;;;20.60;18.50;;;8.50;99.90;;;;;;5046365;28;20052;-75
2023/01/19 12:04:37;;;;;;;10.50;5.87;;;7.50;99.90;;;;;;5047188;28;21379;-77
2023/01/19 12:07:07;;;;;;;12.87;5.47;;;7.00;99.90;;;;;;5046880;28;20074;-76
2023/01/19 12:09:41;;;;;;;11.00;5.03;;;6.70;99.90;;;;;;5051554;28;20504;-79
2023/01/19 12:12:29;;;;;;;14.20;8.47;;;6.20;99.90;;;;;;5049875;28;20048;-79
2023/01/19 12:15:07;;;;;;;11.47;4.53;;;6.00;99.90;;;;;;5050659;28;20068;-79
2023/01/19 12:17:36;;;;;;;14.53;12.53;;;6.10;99.90;;;;;;5050602;28;20052;-79
2023/01/19 12:20:43;;;;;;;14.03;4.70;;;6.30;99.90;;;;;;5051490;28;20047;-76
2023/01/19 12:23:27;;;;;;;11.40;4.80;;;6.30;99.90;;;;;;4956996;28;20085;-78
2023/01/19 12:26:23;;;;;;;13.67;3.20;;;6.50;99.90;;;;;;4990970;28;20065;-77
2023/01/19 12:28:51;;;;;;;17.73;13.30;;;6.10;99.90;;;;;;5040150;28;20109;-77
2023/01/19 12:31:22;;;;;;;8.77;5.20;;;5.80;99.90;;;;;;5051240;28;20157;-75
2023/01/19 12:33:48;;;;;;;10.70;3.07;;;5.60;99.90;;;;;;5048982;28;20048;-75
2023/01/19 12:36:28;;;;;;;13.20;3.90;;;5.50;99.90;;;;;;5050717;28;20056;-79
2023/01/19 12:39:01;;;;;;;12.73;2.50;;;5.30;99.90;;;;;;5049840;28;20139;-77
2023/01/19 12:41:32;;;;;;;12.27;9.40;;;5.30;99.90;;;;;;5049567;28;20294;-75
2023/01/19 12:44:10;;;;;;;7.88;2.15;;;5.10;99.90;;;;;;5049313;28;20064;-74
2023/01/19 12:47:02;;;;;;;8.60;1.97;;;5.10;99.90;;;;;;5049753;28;20056;-78
2023/01/19 12:49:36;;;;;;;;;;;5.00;99.90;;;;;;5049021;28;20127;-78
2023/01/19 12:52:27;;;;;;;9.93;2.37;;;4.80;99.90;;;;;;5065341;28;19928;-79
2023/01/19 12:55:11;;;;;;;12.80;5.18;;;4.80;99.90;;;;;;5051329;28;20036;-77
2023/01/19 12:57:40;;;;;;;11.93;2.63;;;4.60;99.90;;;;;;5050382;28;20418;-75
2023/01/19 13:00:21;;;;;;;7.77;2.17;;;4.60;99.90;;;;;;5049440;28;20060;-77
2023/01/19 13:02:52;;;;;;;11.05;3.65;;;4.60;99.90;;;;;;5050471;28;20061;-77
2023/01/19 13:05:29;;;;;;;14.00;2.47;;;4.40;99.90;;;;;;5048543;28;20147;-79
2023/01/19 13:08:01;;;;;;;10.30;1.50;;;4.40;99.90;;;;;;5050310;28;20098;-75
2023/01/19 13:10:52;;;;;;;13.50;4.53;;;4.50;99.90;;;;;;5048003;28;20055;-78
2023/01/19 13:13:21;;;;;;;7.80;1.98;;;4.30;99.90;;;;;;5049816;28;20044;-75